Startpagina
METAR-TAF:

METAR-TAF

Vliegvelden :

Luchthaven van Khartoem

Khartoem, Soedan

breedte: 15-36N, lengte: 032-33E, hoogte: 382 m

Actueel weer

Dit bericht is 31 minuten geleden gemaakt, om 02:30 UTC
Wind 9 kt uit het noorden
Temperatuur 28°C
Vochtigheid 19%
Druk 1009 hPa
Zicht 10 km of meer
geen wolken onder 1500 m en geen cumulonimbus

METAR: HSSS 180230Z 01009KT CAVOK 28/02 Q1009 NOSIG

Tijdstip: 06:01 (03:01 UTC)

Verwachting

Dit bericht is 4 uur en het 1 minuten geleden gemaakt, om 23:00 UTC
Verwachting geldig van 18 om 00 UTC tot 18 om 09 UTC
Wind 8 kt uit het noordnoordwesten met uitschieters tot 18 kt
Zicht 10 km of meer
geen wolken onder 1500 m en geen cumulonimbus
Tijdelijke
van 18 om 04 UTC tot 18 om 09 UTC
Zicht: 6000 m

TAF: HSSS 172300Z 1800/1809 34008G18KT CAVOK TEMPO 1804/1809 6000

Waarnemingen en weersverwachtingen van meer dan 4000 vliegvelden (METAR en TAF).

De beschikbare stations zijn de gele en rode punten op de kaart.

Ga met uw muis naar het station om de naam te zien.

Klik dan om waarnemingen en weersverwachtingen te zien.

kaart wijzigen: klik op de groene knoppen met een zwart kruis om in te zoomen, op de groene knop met een streepje om uit te zoomen of op de groene pijlen voor aangrenzende kaarten.


METAR-TAF: